Time;durP1;ratioP1;P1;durP2;ratioP2;P2;SDS_P1;SDS_P2;PMS_P1;PMS_P2;Temp;Humidity;BMP_temperature;BMP_pressure;BME280_temperature;BME280_humidity;BME280_pressure;Samples;Min_cycle;Max_cycle;Signal;HPM_P1;HPM_P2
2022/04/06 00:00:52;;;;;;;5.82;5.43;;;7.30;99.90;;;;;;5085649;27;21076;-61
2022/04/06 00:03:32;;;;;;;5.78;5.38;;;7.30;99.90;;;;;;5106159;27;20909;-61
2022/04/06 00:06:12;;;;;;;5.18;4.78;;;7.30;99.90;;;;;;5085797;28;20560;-62
2022/04/06 00:08:51;;;;;;;5.93;5.50;;;7.30;99.90;;;;;;5147462;27;20614;-60
2022/04/06 00:11:31;;;;;;;5.47;4.97;;;7.30;99.90;;;;;;5086153;27;20570;-60
2022/04/06 00:14:12;;;;;;;5.47;5.18;;;7.30;99.90;;;;;;5086167;27;21100;-60
2022/04/06 00:16:51;;;;;;;5.90;5.50;;;7.30;99.90;;;;;;5106576;27;20539;-60
2022/04/06 00:19:32;;;;;;;6.30;5.80;;;7.20;99.90;;;;;;5126585;27;20659;-61
2022/04/06 00:22:11;;;;;;;5.97;5.55;;;7.10;99.90;;;;;;5126947;27;20570;-61
2022/04/06 00:24:51;;;;;;;5.55;5.15;;;7.10;99.90;;;;;;5147650;27;20576;-60
2022/04/06 00:27:30;;;;;;;5.70;5.25;;;7.10;99.90;;;;;;5126925;27;20604;-62
2022/04/06 00:30:11;;;;;;;5.65;5.25;;;7.10;99.90;;;;;;5106359;27;20842;-58
2022/04/06 00:32:50;;;;;;;5.40;5.00;;;7.10;99.90;;;;;;5147691;27;20554;-60
2022/04/06 00:35:31;;;;;;;5.50;5.10;;;7.10;99.90;;;;;;5147507;27;20542;-60
2022/04/06 00:38:10;;;;;;;5.68;5.00;;;7.10;99.90;;;;;;5147529;27;20560;-60
2022/04/06 00:40:49;;;;;;;5.03;4.72;;;7.10;99.90;;;;;;5126483;27;21196;-60
2022/04/06 00:43:29;;;;;;;6.57;6.07;;;7.20;99.90;;;;;;5106473;27;20553;-61
2022/04/06 00:46:09;;;;;;;5.35;4.95;;;7.20;99.90;;;;;;5106643;27;20546;-61
2022/04/06 00:48:49;;;;;;;5.47;5.03;;;7.20;99.90;;;;;;5127189;27;20586;-60
2022/04/06 00:51:29;;;;;;;5.78;5.28;;;7.20;99.90;;;;;;5148549;27;20564;-60
2022/04/06 00:54:09;;;;;;;4.35;4.05;;;7.20;99.90;;;;;;5147580;27;21063;-59
2022/04/06 00:56:49;;;;;;;5.65;5.25;;;7.20;99.90;;;;;;5086141;27;21130;-60
2022/04/06 00:59:30;;;;;;;4.43;4.13;;;7.20;99.90;;;;;;5146696;27;20564;-61
2022/04/06 01:02:10;;;;;;;4.80;4.50;;;7.20;99.90;;;;;;5154486;27;20621;-59
2022/04/06 01:04:49;;;;;;;5.57;5.13;;;7.20;99.90;;;;;;5126722;27;20548;-61
2022/04/06 01:07:31;;;;;;;4.60;4.30;;;7.20;99.90;;;;;;5147943;27;20547;-60
2022/04/06 01:10:11;;;;;;;4.10;3.80;;;7.20;99.90;;;;;;5105781;27;20658;-61
2022/04/06 01:12:50;;;;;;;4.00;3.70;;;7.20;99.90;;;;;;5106905;27;20955;-61
2022/04/06 01:15:31;;;;;;;4.35;4.03;;;7.20;99.90;;;;;;5147331;27;20653;-61
2022/04/06 01:18:10;;;;;;;2.28;2.10;;;7.20;99.90;;;;;;5147899;27;20534;-60
2022/04/06 01:20:50;;;;;;;4.38;4.07;;;7.20;99.90;;;;;;5105811;27;20892;-60
2022/04/06 01:23:30;;;;;;;3.53;3.28;;;7.20;99.90;;;;;;5126869;27;21108;-60
2022/04/06 01:26:11;;;;;;;3.63;3.38;;;7.20;99.90;;;;;;5147633;27;20535;-60
2022/04/06 01:28:51;;;;;;;4.18;3.78;;;7.20;99.90;;;;;;5148209;27;20565;-60
2022/04/06 01:31:31;;;;;;;3.42;3.13;;;7.20;99.90;;;;;;5126782;27;20540;-63
2022/04/06 01:34:11;;;;;;;3.50;3.22;;;7.30;99.90;;;;;;5147614;27;21143;-60
2022/04/06 01:36:51;;;;;;;3.80;3.50;;;7.30;99.90;;;;;;5147769;27;20538;-60
2022/04/06 01:39:30;;;;;;;3.05;2.85;;;7.30;99.90;;;;;;5085496;28;20676;-63
2022/04/06 01:42:13;;;;;;;3.00;2.80;;;7.30;99.90;;;;;;5155120;27;20895;-60
2022/04/06 01:44:54;;;;;;;3.15;2.95;;;7.30;99.90;;;;;;5147522;27;20538;-60
2022/04/06 01:47:33;;;;;;;3.90;3.70;;;7.30;99.90;;;;;;5147545;27;20546;-60
2022/04/06 01:53:10;;;;;;;3.20;3.00;;;7.30;99.90;;;;;;5104914;27;20593;-60
2022/04/06 01:55:50;;;;;;;3.13;2.92;;;7.30;99.90;;;;;;5106041;27;20553;-61
2022/04/06 01:58:30;;;;;;;4.43;2.88;;;7.30;99.90;;;;;;5085637;28;21030;-62
2022/04/06 02:01:10;;;;;;;2.78;2.58;;;7.30;99.90;;;;;;5085654;28;21065;-61
2022/04/06 02:03:50;;;;;;;2.88;2.67;;;7.40;99.90;;;;;;5126837;27;20557;-60
2022/04/06 02:06:29;;;;;;;2.30;2.10;;;7.40;99.90;;;;;;5106358;27;20545;-60
2022/04/06 02:09:10;;;;;;;3.10;2.83;;;7.40;99.90;;;;;;5126518;27;20547;-61
2022/04/06 02:11:50;;;;;;;2.25;2.08;;;7.40;99.90;;;;;;5106221;27;20907;-60
2022/04/06 02:14:29;;;;;;;2.70;2.50;;;7.40;99.90;;;;;;5147374;27;20991;-62
2022/04/06 02:17:10;;;;;;;2.95;2.75;;;7.50;99.90;;;;;;5126757;27;20539;-61
2022/04/06 02:19:50;;;;;;;2.70;2.50;;;7.50;99.90;;;;;;5085743;27;20568;-58
2022/04/06 02:22:30;;;;;;;2.83;2.63;;;7.50;99.90;;;;;;5106251;27;21045;-60
2022/04/06 02:25:12;;;;;;;2.60;2.50;;;7.50;99.90;;;;;;5127055;27;20939;-61
2022/04/06 02:27:53;;;;;;;3.25;3.05;;;7.50;99.90;;;;;;5085948;27;20541;-62
2022/04/06 02:30:33;;;;;;;2.55;2.35;;;7.50;99.90;;;;;;5147290;27;20669;-59
2022/04/06 02:33:13;;;;;;;2.92;2.72;;;7.50;99.90;;;;;;5105971;27;20553;-59
2022/04/06 02:35:52;;;;;;;2.97;2.78;;;7.40;99.90;;;;;;5106283;27;20555;-61
2022/04/06 02:38:32;;;;;;;4.75;4.47;;;7.40;99.90;;;;;;5084834;27;20391;-61
2022/04/06 02:41:12;;;;;;;3.15;2.95;;;7.40;99.90;;;;;;5147345;27;20683;-60
2022/04/06 02:43:52;;;;;;;3.15;2.95;;;7.30;99.90;;;;;;5126713;27;20659;-61
2022/04/06 02:46:32;;;;;;;2.88;2.67;;;7.40;99.90;;;;;;5126930;27;20604;-60
2022/04/06 02:49:12;;;;;;;3.05;2.83;;;7.30;99.90;;;;;;5126617;27;20540;-58
2022/04/06 02:51:52;;;;;;;2.17;2.08;;;7.30;99.90;;;;;;5151471;27;20582;-61
2022/04/06 02:54:31;;;;;;;3.30;3.00;;;7.30;99.90;;;;;;5086065;27;20590;-59
2022/04/06 02:57:11;;;;;;;3.55;3.25;;;7.30;99.90;;;;;;5085236;28;20542;-60
2022/04/06 02:59:51;;;;;;;3.67;3.38;;;7.30;99.90;;;;;;5125878;27;20544;-61
2022/04/06 03:02:31;;;;;;;3.13;2.85;;;7.30;99.90;;;;;;5126254;27;20545;-60
2022/04/06 03:05:11;;;;;;;2.97;2.78;;;7.30;99.90;;;;;;5106376;27;20575;-60
2022/04/06 03:07:50;;;;;;;2.35;2.15;;;7.20;99.90;;;;;;5146939;27;21082;-60
2022/04/06 03:10:30;;;;;;;2.85;2.65;;;7.20;99.90;;;;;;5126240;27;20894;-61
2022/04/06 03:13:10;;;;;;;2.40;2.25;;;7.20;99.90;;;;;;5126683;27;20865;-60
2022/04/06 03:15:50;;;;;;;2.70;2.50;;;7.20;99.90;;;;;;5146956;27;20527;-60
2022/04/06 03:18:30;;;;;;;2.45;2.25;;;7.20;99.90;;;;;;5126807;27;20584;-60
2022/04/06 03:21:09;;;;;;;2.83;2.63;;;7.20;99.90;;;;;;5126621;27;21015;-62
2022/04/06 03:23:49;;;;;;;2.85;2.65;;;7.30;99.90;;;;;;5126748;27;20543;-60
2022/04/06 03:26:29;;;;;;;2.28;2.08;;;7.30;99.90;;;;;;5147503;27;20560;-61
2022/04/06 03:29:09;;;;;;;1.73;1.63;;;7.30;99.90;;;;;;5106076;27;20550;-61
2022/04/06 03:31:49;;;;;;;1.73;1.63;;;7.30;99.90;;;;;;5126429;27;20570;-61
2022/04/06 03:34:29;;;;;;;1.50;1.40;;;7.30;99.90;;;;;;5147740;27;20607;-60
2022/04/06 03:37:08;;;;;;;1.60;1.50;;;7.30;99.90;;;;;;5086441;27;20539;-60
2022/04/06 03:39:48;;;;;;;1.52;1.42;;;7.30;99.90;;;;;;5146744;27;20546;-61
2022/04/06 03:42:28;;;;;;;1.48;1.38;;;7.30;99.90;;;;;;5126974;27;20560;-63
2022/04/06 03:45:09;;;;;;;1.33;1.23;;;7.20;99.90;;;;;;5086070;27;20595;-60
2022/04/06 03:47:48;;;;;;;1.60;1.50;;;7.20;99.90;;;;;;5086190;27;20543;-60
2022/04/06 03:50:28;;;;;;;1.55;1.45;;;7.30;99.90;;;;;;5106397;27;20549;-61
2022/04/06 03:53:07;;;;;;;1.60;1.45;;;7.30;99.90;;;;;;5086032;28;20568;-60
2022/04/06 03:55:47;;;;;;;1.63;1.52;;;7.30;99.90;;;;;;5106704;27;20533;-60
2022/04/06 03:58:28;;;;;;;2.45;2.35;;;7.30;99.90;;;;;;5105783;27;20542;-61
2022/04/06 04:01:08;;;;;;;1.13;1.13;;;7.30;99.90;;;;;;5105355;27;20537;-59
2022/04/06 04:03:50;;;;;;;6.95;1.45;;;7.30;99.90;;;;;;5152731;27;21000;-59
2022/04/06 04:06:30;;;;;;;4.47;3.65;;;7.30;99.90;;;;;;5105439;27;21129;-59
2022/04/06 04:09:09;;;;;;;1.95;1.85;;;7.30;99.90;;;;;;5147148;27;20542;-59
2022/04/06 04:11:49;;;;;;;1.80;1.70;;;7.40;99.90;;;;;;5086001;27;20573;-59
2022/04/06 04:14:32;;;;;;;1.77;1.67;;;7.40;99.90;;;;;;5085966;27;20543;-60
2022/04/06 04:17:11;;;;;;;2.50;2.30;;;7.40;99.90;;;;;;5086065;27;21145;-60
2022/04/06 04:19:51;;;;;;;2.40;2.30;;;7.30;99.90;;;;;;5085159;27;20547;-59
2022/04/06 04:22:31;;;;;;;2.45;2.22;;;7.30;99.90;;;;;;5124678;27;20449;-60
2022/04/06 04:25:12;;;;;;;2.22;2.05;;;7.40;99.90;;;;;;5126329;27;20544;-59
2022/04/06 04:27:52;;;;;;;2.08;1.98;;;7.40;99.90;;;;;;5125566;27;20655;-59
2022/04/06 04:30:31;;;;;;;1.80;1.70;;;7.30;99.90;;;;;;5146024;27;20665;-59
2022/04/06 04:33:11;;;;;;;2.17;2.08;;;7.30;99.90;;;;;;5163194;27;20553;-59
2022/04/06 04:35:51;;;;;;;2.30;2.20;;;7.30;99.90;;;;;;5126676;27;20544;-59
2022/04/06 04:38:31;;;;;;;1.67;1.58;;;7.30;99.90;;;;;;5106036;27;20661;-59
2022/04/06 04:41:12;;;;;;;2.05;1.90;;;7.30;99.90;;;;;;5126522;27;20537;-59
2022/04/06 04:43:51;;;;;;;2.53;2.33;;;7.30;99.90;;;;;;5147117;27;20665;-59
2022/04/06 04:46:30;;;;;;;1.65;1.55;;;7.40;99.90;;;;;;5147386;27;20575;-59
2022/04/06 04:49:10;;;;;;;2.35;2.15;;;7.40;99.90;;;;;;5126303;27;21064;-59
2022/04/06 04:51:50;;;;;;;2.28;2.17;;;7.40;99.90;;;;;;5083181;27;21095;-59
2022/04/06 04:54:30;;;;;;;2.60;2.40;;;7.40;99.90;;;;;;5082392;28;20568;-59
2022/04/06 04:57:10;;;;;;;1.90;1.80;;;7.30;99.90;;;;;;5126781;27;20552;-59
2022/04/06 04:59:52;;;;;;;2.60;2.40;;;7.30;99.90;;;;;;5146203;27;20560;-59
2022/04/06 05:02:31;;;;;;;2.40;2.30;;;7.30;99.90;;;;;;5106182;27;20546;-59
2022/04/06 05:05:11;;;;;;;2.60;2.40;;;7.40;99.90;;;;;;5106017;27;20537;-59
2022/04/06 05:07:51;;;;;;;2.65;2.45;;;7.40;99.90;;;;;;5085934;27;20566;-59
2022/04/06 05:10:30;;;;;;;2.10;1.92;;;7.40;99.90;;;;;;5105757;27;20542;-59
2022/04/06 05:13:11;;;;;;;2.33;2.22;;;7.40;99.90;;;;;;5126118;27;21212;-59
2022/04/06 05:15:50;;;;;;;2.17;2.08;;;7.50;99.90;;;;;;5126097;27;20560;-57
2022/04/06 05:18:30;;;;;;;2.97;2.10;;;7.60;99.90;;;;;;5146899;27;20562;-59
2022/04/06 05:21:10;;;;;;;2.30;2.20;;;7.70;99.90;;;;;;5085118;27;20581;-59
2022/04/06 05:23:50;;;;;;;3.03;2.78;;;7.80;99.90;;;;;;5147051;27;20573;-59
2022/04/06 05:26:30;;;;;;;2.17;2.08;;;7.90;99.90;;;;;;5085518;28;21359;-59
2022/04/06 05:29:09;;;;;;;2.42;2.22;;;8.00;99.90;;;;;;5126036;27;20537;-59
2022/04/06 05:31:49;;;;;;;3.00;2.80;;;8.10;99.90;;;;;;5147246;27;20673;-59
2022/04/06 05:34:29;;;;;;;2.85;2.65;;;8.20;99.90;;;;;;5126675;27;20549;-59
2022/04/06 05:37:09;;;;;;;2.70;2.50;;;8.20;99.90;;;;;;5127216;27;20679;-59
2022/04/06 05:39:48;;;;;;;5.10;4.80;;;8.20;99.90;;;;;;5147848;27;20568;-59
2022/04/06 05:42:28;;;;;;;2.50;2.30;;;8.30;99.90;;;;;;5157208;27;20549;-59
2022/04/06 05:45:09;;;;;;;3.53;2.35;;;8.40;99.90;;;;;;5147748;27;20565;-59
2022/04/06 05:47:50;;;;;;;2.58;2.38;;;8.50;99.90;;;;;;5085940;27;20566;-59
2022/04/06 05:50:29;;;;;;;7.03;3.00;;;8.60;99.90;;;;;;5106535;27;20980;-59
2022/04/06 05:53:09;;;;;;;2.35;2.20;;;8.80;99.90;;;;;;5147420;27;20562;-59
2022/04/06 05:55:50;;;;;;;2.50;2.30;;;8.90;99.90;;;;;;5147756;27;20550;-60
2022/04/06 05:58:29;;;;;;;2.92;2.30;;;9.10;99.90;;;;;;5105994;27;20537;-60
2022/04/06 06:01:09;;;;;;;2.95;2.75;;;9.20;99.90;;;;;;5147509;27;20568;-59
2022/04/06 06:03:48;;;;;;;2.50;2.40;;;9.30;99.90;;;;;;5126629;27;20532;-59
2022/04/06 06:06:28;;;;;;;2.45;2.25;;;9.40;99.90;;;;;;5127368;27;20660;-59
2022/04/06 06:09:08;;;;;;;2.70;2.50;;;9.30;99.90;;;;;;5126567;27;20956;-59
2022/04/06 06:11:48;;;;;;;3.35;3.08;;;9.30;99.90;;;;;;5086050;27;20565;-59
2022/04/06 06:14:28;;;;;;;3.30;3.10;;;9.30;99.90;;;;;;5147399;27;21043;-59
2022/04/06 06:17:08;;;;;;;3.00;2.80;;;9.40;99.90;;;;;;5147469;27;20535;-59
2022/04/06 06:19:47;;;;;;;3.72;2.97;;;9.40;99.90;;;;;;5147011;27;20539;-59
2022/04/06 06:22:27;;;;;;;2.90;2.70;;;9.40;99.90;;;;;;5106141;27;20422;-59
2022/04/06 06:25:08;;;;;;;2.70;2.50;;;9.50;99.90;;;;;;5147168;27;20550;-59
2022/04/06 06:27:47;;;;;;;2.92;2.72;;;9.60;99.90;;;;;;5086060;27;20555;-59
2022/04/06 06:30:27;;;;;;;3.55;3.25;;;9.60;99.90;;;;;;5126828;27;21188;-59
2022/04/06 06:33:07;;;;;;;3.20;2.95;;;9.50;99.90;;;;;;5126701;27;20556;-59
2022/04/06 06:35:47;;;;;;;2.80;2.60;;;9.30;99.90;;;;;;5127657;27;20548;-60
2022/04/06 06:38:26;;;;;;;3.05;2.85;;;9.30;99.90;;;;;;5147597;27;20542;-59
2022/04/06 06:41:06;;;;;;;3.50;3.20;;;9.20;99.90;;;;;;5147385;27;20575;-59
2022/04/06 06:43:48;;;;;;;2.92;2.72;;;9.20;99.90;;;;;;5147119;27;20603;-59
2022/04/06 06:46:29;;;;;;;3.03;2.83;;;9.10;99.90;;;;;;5086561;27;20572;-60
2022/04/06 06:49:10;;;;;;;2.95;2.75;;;9.20;99.90;;;;;;5147846;27;20530;-59
2022/04/06 06:51:50;;;;;;;3.45;3.25;;;9.40;99.90;;;;;;5152126;27;20559;-59
2022/04/06 06:54:30;;;;;;;3.90;3.60;;;9.80;99.90;;;;;;5106693;27;21008;-60
2022/04/06 06:57:11;;;;;;;5.53;3.40;;;9.90;99.90;;;;;;5127207;27;21121;-61
2022/04/06 06:59:51;;;;;;;2.97;2.78;;;10.10;99.90;;;;;;5085318;27;20550;-59
2022/04/06 07:02:31;;;;;;;4.03;3.72;;;10.30;99.90;;;;;;5086413;27;20547;-59
2022/04/06 07:05:11;;;;;;;3.42;2.97;;;10.30;99.90;;;;;;5106535;27;20542;-59
2022/04/06 07:07:52;;;;;;;3.50;3.30;;;10.50;99.90;;;;;;5147909;27;20646;-60
2022/04/06 07:10:32;;;;;;;3.67;3.38;;;10.40;99.90;;;;;;5126727;27;20536;-60
2022/04/06 07:13:16;;;;;;;4.85;2.60;;;10.40;99.90;;;;;;5106696;27;20976;-60
2022/04/06 07:15:55;;;;;;;3.08;2.88;;;10.40;99.90;;;;;;5106388;27;20534;-60
2022/04/06 07:18:35;;;;;;;3.55;3.33;;;10.40;99.90;;;;;;5147461;27;20958;-60
2022/04/06 07:21:16;;;;;;;3.58;3.38;;;10.40;99.90;;;;;;5126679;27;20552;-60
2022/04/06 07:23:57;;;;;;;2.95;2.75;;;10.40;99.90;;;;;;5106301;27;20538;-60
2022/04/06 07:26:36;;;;;;;11.77;4.50;;;10.30;99.90;;;;;;5147489;27;20534;-59
2022/04/06 07:29:16;;;;;;;3.17;2.97;;;10.20;99.90;;;;;;5085369;28;20545;-60
2022/04/06 07:31:55;;;;;;;3.03;2.83;;;10.10;99.90;;;;;;5085907;28;20568;-61
2022/04/06 07:34:35;;;;;;;3.15;2.95;;;10.30;99.90;;;;;;5085637;28;20679;-60
2022/04/06 07:37:15;;;;;;;6.97;3.80;;;10.50;99.90;;;;;;5147197;27;20548;-59
2022/04/06 07:39:55;;;;;;;2.83;2.63;;;10.80;99.90;;;;;;5085468;27;20554;-59
2022/04/06 07:42:36;;;;;;;2.85;2.65;;;11.10;99.90;;;;;;5085949;28;20987;-60
2022/04/06 07:45:17;;;;;;;2.30;2.20;;;11.40;99.90;;;;;;5106038;27;20678;-61
2022/04/06 07:47:56;;;;;;;2.53;2.33;;;11.60;99.90;;;;;;5085864;28;20539;-59
2022/04/06 07:50:36;;;;;;;2.95;2.75;;;11.60;99.90;;;;;;5147066;27;20546;-60
2022/04/06 07:53:17;;;;;;;56.97;10.15;;;11.50;99.90;;;;;;5106173;27;20549;-60
2022/04/06 07:55:57;;;;;;;3.08;2.55;;;11.40;99.90;;;;;;5126636;27;20978;-60
2022/04/06 07:58:37;;;;;;;2.60;2.40;;;11.30;99.90;;;;;;5085811;28;20675;-59
2022/04/06 08:01:17;;;;;;;3.75;2.88;;;11.10;99.90;;;;;;5147191;27;20534;-59
2022/04/06 08:03:57;;;;;;;3.30;3.00;;;11.00;99.90;;;;;;5085073;28;20543;-59
2022/04/06 08:06:36;;;;;;;2.85;2.65;;;11.00;99.90;;;;;;5126842;27;20566;-60
2022/04/06 08:09:16;;;;;;;21.75;4.88;;;11.00;99.90;;;;;;5147288;27;21174;-60
2022/04/06 08:11:56;;;;;;;4.30;2.58;;;11.10;99.90;;;;;;5152654;27;21141;-60
2022/04/06 08:14:36;;;;;;;2.83;2.63;;;11.20;99.90;;;;;;5147204;27;20538;-60
2022/04/06 08:17:16;;;;;;;3.13;2.92;;;11.10;99.90;;;;;;5127121;27;20655;-60
2022/04/06 08:19:56;;;;;;;3.28;3.08;;;10.80;99.90;;;;;;5147314;27;20959;-59
2022/04/06 08:22:36;;;;;;;3.10;2.90;;;10.80;99.90;;;;;;5106307;27;20557;-60
2022/04/06 08:25:16;;;;;;;4.20;2.33;;;11.00;99.90;;;;;;5126483;27;20548;-60
2022/04/06 08:27:55;;;;;;;2.70;2.50;;;11.30;99.90;;;;;;5106430;27;20541;-60
2022/04/06 08:30:39;;;;;;;2.70;2.50;;;11.60;99.90;;;;;;5105784;27;20550;-60
2022/04/06 08:33:20;;;;;;;2.75;2.55;;;11.70;99.90;;;;;;5106506;27;20937;-60
2022/04/06 08:36:00;;;;;;;2.58;2.35;;;11.80;99.90;;;;;;5126501;27;20905;-61
2022/04/06 08:38:39;;;;;;;4.30;2.80;;;12.00;99.90;;;;;;5147693;27;20530;-60
2022/04/06 08:41:24;;;;;;;3.38;3.08;;;12.20;99.90;;;;;;5105909;27;20549;-59
2022/04/06 08:44:04;;;;;;;3.47;3.15;;;12.40;99.90;;;;;;5147418;27;20556;-59
2022/04/06 08:46:46;;;;;;;3.05;2.78;;;12.70;99.90;;;;;;5106083;27;20571;-61
2022/04/06 08:49:26;;;;;;;2.85;2.65;;;12.70;99.90;;;;;;5126634;27;20651;-61
2022/04/06 08:52:06;;;;;;;2.30;2.10;;;12.80;99.90;;;;;;5153674;27;20574;-61
2022/04/06 08:54:45;;;;;;;2.25;2.13;;;12.80;99.90;;;;;;5127236;27;20556;-60
2022/04/06 08:57:26;;;;;;;2.78;2.58;;;12.70;99.90;;;;;;5126737;27;20672;-59
2022/04/06 09:00:07;;;;;;;3.00;2.78;;;12.80;99.90;;;;;;5146419;27;20557;-60
2022/04/06 09:02:48;;;;;;;3.60;3.40;;;13.00;99.90;;;;;;5085993;27;20970;-59
2022/04/06 09:05:31;;;;;;;3.85;3.03;;;13.10;99.90;;;;;;5127058;27;20544;-61
2022/04/06 09:08:10;;;;;;;2.90;2.70;;;13.30;99.90;;;;;;5106444;27;20537;-59
2022/04/06 09:10:50;;;;;;;3.47;3.17;;;13.40;99.90;;;;;;5147401;27;20547;-60
2022/04/06 09:13:30;;;;;;;3.22;2.92;;;13.50;99.90;;;;;;5127097;27;20568;-61
2022/04/06 09:16:11;;;;;;;3.72;3.42;;;13.40;99.90;;;;;;5085968;28;21294;-60
2022/04/06 09:18:53;;;;;;;3.00;2.75;;;13.00;99.90;;;;;;5147624;27;20567;-59
2022/04/06 09:21:39;;;;;;;3.03;2.83;;;12.70;99.90;;;;;;5105967;27;21094;-59
2022/04/06 09:24:20;;;;;;;2.60;2.40;;;12.40;99.90;;;;;;5147530;27;20669;-60
2022/04/06 09:27:02;;;;;;;2.67;2.47;;;12.50;99.90;;;;;;5085582;27;20672;-61
2022/04/06 09:29:41;;;;;;;2.53;2.25;;;12.90;99.90;;;;;;5147385;27;21261;-60
2022/04/06 09:32:21;;;;;;;3.67;2.47;;;13.30;99.90;;;;;;5147225;27;21105;-59
2022/04/06 09:35:01;;;;;;;3.00;2.25;;;13.70;99.90;;;;;;5106525;27;20537;-60
2022/04/06 09:37:41;;;;;;;2.60;2.40;;;13.80;99.90;;;;;;5126648;27;20663;-61
2022/04/06 09:40:21;;;;;;;2.45;2.28;;;13.80;99.90;;;;;;5085619;28;20664;-60
2022/04/06 09:43:01;;;;;;;2.10;2.00;;;13.50;99.90;;;;;;5126646;27;20613;-61
2022/04/06 09:48:57;;;;;;;1.80;1.70;;;13.20;99.90;;;;;;5147302;27;20531;-60
2022/04/06 09:51:38;;;;;;;1.73;1.63;;;12.90;99.90;;;;;;5126728;27;20899;-60
2022/04/06 09:54:17;;;;;;;3.38;1.95;;;12.60;99.90;;;;;;5086484;27;20687;-61
2022/04/06 09:56:57;;;;;;;8.55;2.78;;;12.50;99.90;;;;;;5127032;27;20679;-60
2022/04/06 09:59:38;;;;;;;16.80;3.83;;;12.60;99.90;;;;;;5125823;27;20566;-61
2022/04/06 10:02:18;;;;;;;2.45;2.25;;;12.80;99.90;;;;;;5155624;27;21130;-60
2022/04/06 10:04:59;;;;;;;4.70;1.90;;;13.30;99.90;;;;;;5147772;27;20534;-60
2022/04/06 10:07:40;;;;;;;4.10;2.30;;;14.00;99.90;;;;;;5106636;27;21156;-60
2022/04/06 10:10:23;;;;;;;1.83;1.65;;;14.50;99.90;;;;;;5086068;28;20539;-59
2022/04/06 10:13:04;;;;;;;10.32;3.13;;;14.90;99.90;;;;;;5162207;27;20549;-60
2022/04/06 10:15:44;;;;;;;2.17;1.90;;;15.20;99.90;;;;;;5127228;27;20544;-61
2022/04/06 10:18:25;;;;;;;2.28;2.00;;;15.10;99.90;;;;;;5107068;27;20545;-60
2022/04/06 10:21:13;;;;;;;2.30;2.10;;;14.70;99.90;;;;;;5106812;27;20553;-59
2022/04/06 10:24:07;;;;;;;2.17;1.98;;;14.20;99.90;;;;;;5148035;27;20542;-59
2022/04/06 10:27:04;;;;;;;14.50;3.72;;;13.60;99.90;;;;;;5086535;28;21072;-60
2022/04/06 10:30:12;;;;;;;2.30;2.10;;;13.30;99.90;;;;;;5147528;27;20993;-60
2022/04/06 10:32:53;;;;;;;2.40;1.65;;;13.40;99.90;;;;;;5106466;27;20553;-59
2022/04/06 10:35:34;;;;;;;8.38;1.70;;;13.20;99.90;;;;;;5085991;27;20552;-61
2022/04/06 10:38:21;;;;;;;1.60;1.50;;;13.20;99.90;;;;;;5106468;27;21028;-60
2022/04/06 10:41:08;;;;;;;1.90;1.60;;;13.60;99.90;;;;;;5126611;27;20691;-62
2022/04/06 10:43:53;;;;;;;1.40;1.30;;;14.10;99.90;;;;;;5106559;27;20542;-60
2022/04/06 10:46:39;;;;;;;11.15;2.72;;;14.70;99.90;;;;;;5085971;27;20969;-60
2022/04/06 10:49:19;;;;;;;3.28;1.50;;;15.30;99.90;;;;;;5126620;27;21076;-60
2022/04/06 10:52:00;;;;;;;1.50;1.40;;;15.60;99.90;;;;;;5106229;27;21000;-61
2022/04/06 10:54:42;;;;;;;2.03;1.92;;;16.10;99.90;;;;;;5147788;27;20538;-59
2022/04/06 10:57:22;;;;;;;2.67;1.70;;;16.20;99.90;;;;;;5147696;27;20750;-59
2022/04/06 11:00:16;;;;;;;1.45;1.23;;;16.00;99.90;;;;;;5146817;27;20538;-60
2022/04/06 11:03:14;;;;;;;1.85;1.40;;;15.80;99.90;;;;;;5160643;27;21025;-60
2022/04/06 11:05:53;;;;;;;4.97;1.50;;;16.00;99.90;;;;;;5085865;28;20660;-61
2022/04/06 11:11:48;;;;;;;1.30;1.20;;;16.50;99.90;;;;;;5150589;27;20549;-60
2022/04/06 11:14:31;;;;;;;1.42;1.33;;;16.30;99.90;;;;;;5126477;27;21057;-61
2022/04/06 11:17:37;;;;;;;1.58;1.42;;;16.50;99.90;;;;;;5126630;27;21189;-59
2022/04/06 11:20:18;;;;;;;1.60;1.50;;;16.60;99.90;;;;;;5105936;27;20537;-60
2022/04/06 11:22:58;;;;;;;1.10;0.90;;;16.70;99.90;;;;;;5078475;28;20723;-61
2022/04/06 11:25:37;;;;;;;1.40;1.30;;;16.60;99.90;;;;;;5126676;27;21030;-61
2022/04/06 11:28:17;;;;;;;1.92;1.83;;;17.00;99.90;;;;;;5147288;27;20534;-59
2022/04/06 11:31:01;;;;;;;1.80;1.70;;;17.20;99.90;;;;;;5106191;27;20542;-60
2022/04/06 11:33:42;;;;;;;3.17;1.88;;;17.20;99.90;;;;;;5077527;27;20549;-60
2022/04/06 11:36:22;;;;;;;1.45;1.35;;;17.20;99.90;;;;;;5147239;27;20665;-58
2022/04/06 11:39:01;;;;;;;1.30;1.20;;;17.20;99.90;;;;;;5147043;27;20538;-60
2022/04/06 11:41:44;;;;;;;1.20;1.10;;;17.40;99.90;;;;;;5103656;27;20553;-60
2022/04/06 11:44:24;;;;;;;1.00;1.00;;;17.80;99.90;;;;;;5126348;27;20675;-61
2022/04/06 11:47:04;;;;;;;1.75;1.42;;;17.90;99.90;;;;;;5147530;27;20562;-60
2022/04/06 11:49:44;;;;;;;0.93;0.90;;;17.60;99.90;;;;;;5146543;27;20554;-60
2022/04/06 11:52:24;;;;;;;1.40;1.30;;;17.70;99.90;;;;;;5156032;27;20683;-60
2022/04/06 11:55:04;;;;;;;1.65;1.55;;;17.70;99.90;;;;;;5147061;27;20990;-60
2022/04/06 11:57:45;;;;;;;2.80;2.60;;;17.60;99.90;;;;;;5126454;27;20663;-61
2022/04/06 12:00:25;;;;;;;1.10;1.00;;;17.70;99.90;;;;;;5105764;27;20583;-61
2022/04/06 12:03:05;;;;;;;1.70;1.60;;;17.50;99.90;;;;;;5098628;27;20553;-59
2022/04/06 12:05:48;;;;;;;0.98;0.98;;;17.20;99.90;;;;;;5147204;27;20546;-60
2022/04/06 12:08:28;;;;;;;1.25;1.13;;;17.30;99.90;;;;;;5146969;27;21178;-59
2022/04/06 12:11:08;;;;;;;5.35;1.60;;;17.40;99.90;;;;;;5125960;27;21122;-60
2022/04/06 12:13:48;;;;;;;1.13;1.08;;;17.50;99.90;;;;;;5106103;27;20564;-61
2022/04/06 12:16:27;;;;;;;0.80;0.80;;;17.70;99.90;;;;;;5147200;27;20538;-60
2022/04/06 12:19:12;;;;;;;1.00;1.00;;;17.70;99.90;;;;;;5085696;28;20560;-60
2022/04/06 12:21:51;;;;;;;1.42;1.05;;;17.40;99.90;;;;;;5083230;27;21188;-60
2022/04/06 12:24:38;;;;;;;1.35;0.90;;;17.30;99.90;;;;;;5117812;27;21064;-60
2022/04/06 12:27:29;;;;;;;1.08;0.98;;;17.20;99.90;;;;;;5105947;27;21462;-61
2022/04/06 12:30:12;;;;;;;1.73;1.15;;;17.00;99.90;;;;;;5085606;28;20561;-59
2022/04/06 12:32:52;;;;;;;1.10;1.00;;;16.80;99.90;;;;;;5079566;27;20584;-61
2022/04/06 12:35:31;;;;;;;3.90;1.35;;;17.00;99.90;;;;;;5146991;27;21070;-60
2022/04/06 12:38:18;;;;;;;1.00;0.90;;;17.00;99.90;;;;;;5085619;27;20551;-62
2022/04/06 12:41:06;;;;;;;1.08;0.93;;;16.90;99.90;;;;;;5146632;27;21008;-60
2022/04/06 12:43:47;;;;;;;1.73;1.13;;;16.90;99.90;;;;;;5097954;27;20623;-59
2022/04/06 12:46:44;;;;;;;0.80;0.80;;;16.80;99.90;;;;;;5106085;27;20545;-59
2022/04/06 12:49:29;;;;;;;0.60;0.60;;;16.60;99.90;;;;;;5138108;27;20955;-60
2022/04/06 12:52:12;;;;;;;0.85;0.85;;;16.70;99.90;;;;;;5126566;27;20548;-61
2022/04/06 12:55:00;;;;;;;0.98;0.90;;;17.00;99.90;;;;;;5086090;27;20994;-60
2022/04/06 12:57:40;;;;;;;0.88;0.80;;;17.10;99.90;;;;;;5126492;27;20556;-60
2022/04/06 13:00:22;;;;;;;0.90;0.82;;;17.00;99.90;;;;;;5138339;27;20544;-59
2022/04/06 13:03:05;;;;;;;1.67;0.80;;;17.20;99.90;;;;;;5161593;27;20567;-61
2022/04/06 13:05:45;;;;;;;0.88;0.88;;;17.10;99.90;;;;;;5126503;27;20540;-60
2022/04/06 13:08:25;;;;;;;0.70;0.70;;;16.90;99.90;;;;;;5126135;27;20581;-60
2022/04/06 13:11:05;;;;;;;0.88;0.88;;;17.00;99.90;;;;;;5126190;27;20549;-60
2022/04/06 13:13:45;;;;;;;0.95;0.82;;;17.20;99.90;;;;;;5086000;28;20579;-60
2022/04/06 13:16:27;;;;;;;1.55;1.33;;;17.50;99.90;;;;;;5126544;27;20536;-59
2022/04/06 13:19:07;;;;;;;1.10;1.00;;;17.70;99.90;;;;;;5126739;27;20573;-61
2022/04/06 13:21:46;;;;;;;0.60;0.60;;;17.50;99.90;;;;;;5150795;27;20572;-59
2022/04/06 13:24:26;;;;;;;0.57;0.57;;;17.00;99.90;;;;;;5106201;27;20991;-59
2022/04/06 13:27:06;;;;;;;2.60;0.88;;;16.80;99.90;;;;;;5086030;27;20550;-60
2022/04/06 13:29:45;;;;;;;0.40;0.40;;;16.70;99.90;;;;;;5147200;27;20538;-60
2022/04/06 13:32:25;;;;;;;0.52;0.52;;;16.70;99.90;;;;;;5085817;27;20583;-61
2022/04/06 13:35:06;;;;;;;0.70;0.60;;;16.50;99.90;;;;;;5127226;27;20562;-59
2022/04/06 13:37:45;;;;;;;0.80;0.80;;;16.60;99.90;;;;;;5147436;27;20554;-59
2022/04/06 13:40:25;;;;;;;1.00;0.90;;;17.00;99.90;;;;;;5147564;27;20542;-59
2022/04/06 13:43:05;;;;;;;0.60;0.60;;;17.30;99.90;;;;;;5162158;27;20549;-59
2022/04/06 13:45:44;;;;;;;0.70;0.70;;;17.80;99.90;;;;;;5147801;27;20560;-60
2022/04/06 13:48:24;;;;;;;1.67;1.20;;;18.00;99.90;;;;;;5126647;27;20532;-60
2022/04/06 13:51:06;;;;;;;1.92;1.70;;;18.20;99.90;;;;;;5126690;27;20568;-61
2022/04/06 13:53:46;;;;;;;0.80;0.80;;;18.00;99.90;;;;;;5126949;27;20560;-59
2022/04/06 13:56:25;;;;;;;2.33;0.85;;;17.70;99.90;;;;;;5147164;27;20546;-60
2022/04/06 13:59:05;;;;;;;1.08;1.00;;;17.80;99.90;;;;;;5146794;27;20558;-60
2022/04/06 14:01:45;;;;;;;1.48;1.38;;;18.00;99.90;;;;;;5083801;27;21050;-60
2022/04/06 14:04:25;;;;;;;3.30;3.00;;;18.10;99.90;;;;;;5117820;27;21137;-60
2022/04/06 14:07:05;;;;;;;2.60;2.40;;;17.80;99.90;;;;;;5068303;27;20575;-61
2022/04/06 14:09:44;;;;;;;1.90;1.80;;;17.50;99.90;;;;;;5105917;27;20831;-60